sensor_id;sensor_type;location;lat;lon;timestamp;P1;durP1;ratioP1;P2;durP2;ratioP2
71174;SDS011;58876;51.994;4.472;2023-10-19T00:01:07;16.72;;;16.72;;
71174;SDS011;58876;51.994;4.472;2023-10-19T00:03:34;16.88;;;16.88;;
71174;SDS011;58876;51.994;4.472;2023-10-19T00:05:59;16.75;;;16.75;;
71174;SDS011;58876;51.994;4.472;2023-10-19T00:08:25;16.23;;;16.23;;
71174;SDS011;58876;51.994;4.472;2023-10-19T00:10:52;16.38;;;16.38;;
71174;SDS011;58876;51.994;4.472;2023-10-19T00:13:27;16.90;;;16.90;;
71174;SDS011;58876;51.994;4.472;2023-10-19T00:15:55;16.02;;;16.02;;
71174;SDS011;58876;51.994;4.472;2023-10-19T00:18:22;15.43;;;15.43;;
71174;SDS011;58876;51.994;4.472;2023-10-19T00:20:55;14.71;;;14.71;;
71174;SDS011;58876;51.994;4.472;2023-10-19T00:23:44;15.01;;;15.01;;
71174;SDS011;58876;51.994;4.472;2023-10-19T00:26:12;15.15;;;15.15;;
71174;SDS011;58876;51.994;4.472;2023-10-19T00:28:50;14.85;;;14.85;;
71174;SDS011;58876;51.994;4.472;2023-10-19T00:31:23;15.13;;;15.13;;
71174;SDS011;58876;51.994;4.472;2023-10-19T00:33:50;15.07;;;15.07;;
71174;SDS011;58876;51.994;4.472;2023-10-19T00:36:19;14.80;;;14.80;;
71174;SDS011;58876;51.994;4.472;2023-10-19T00:38:46;14.42;;;14.42;;
71174;SDS011;58876;51.994;4.472;2023-10-19T00:41:20;14.55;;;14.55;;
71174;SDS011;58876;51.994;4.472;2023-10-19T00:43:49;14.59;;;14.59;;
71174;SDS011;58876;51.994;4.472;2023-10-19T00:46:15;13.75;;;13.75;;
71174;SDS011;58876;51.994;4.472;2023-10-19T00:48:52;13.56;;;13.56;;
71174;SDS011;58876;51.994;4.472;2023-10-19T00:51:21;13.30;;;13.30;;
71174;SDS011;58876;51.994;4.472;2023-10-19T00:54:14;13.37;;;13.37;;
71174;SDS011;58876;51.994;4.472;2023-10-19T00:56:51;12.60;;;12.60;;
71174;SDS011;58876;51.994;4.472;2023-10-19T00:59:19;13.11;;;13.11;;
71174;SDS011;58876;51.994;4.472;2023-10-19T01:01:45;12.41;;;12.41;;
71174;SDS011;58876;51.994;4.472;2023-10-19T01:04:16;12.67;;;12.67;;
71174;SDS011;58876;51.994;4.472;2023-10-19T01:06:51;13.44;;;13.44;;
71174;SDS011;58876;51.994;4.472;2023-10-19T01:09:35;13.03;;;13.03;;
71174;SDS011;58876;51.994;4.472;2023-10-19T01:12:02;13.76;;;13.76;;
71174;SDS011;58876;51.994;4.472;2023-10-19T01:15:16;13.26;;;13.26;;
71174;SDS011;58876;51.994;4.472;2023-10-19T01:17:49;12.81;;;12.81;;
71174;SDS011;58876;51.994;4.472;2023-10-19T01:20:22;11.65;;;11.65;;
71174;SDS011;58876;51.994;4.472;2023-10-19T01:22:59;12.07;;;12.07;;
71174;SDS011;58876;51.994;4.472;2023-10-19T01:25:42;11.64;;;11.64;;
71174;SDS011;58876;51.994;4.472;2023-10-19T01:28:21;9.67;;;9.67;;
71174;SDS011;58876;51.994;4.472;2023-10-19T01:31:06;10.42;;;10.42;;
71174;SDS011;58876;51.994;4.472;2023-10-19T01:33:33;18.49;;;18.49;;
71174;SDS011;58876;51.994;4.472;2023-10-19T01:36:01;52.58;;;52.58;;
71174;SDS011;58876;51.994;4.472;2023-10-19T01:38:35;66.36;;;66.36;;
71174;SDS011;58876;51.994;4.472;2023-10-19T01:41:01;20.96;;;20.96;;
71174;SDS011;58876;51.994;4.472;2023-10-19T01:43:38;18.48;;;18.48;;
71174;SDS011;58876;51.994;4.472;2023-10-19T01:46:05;3.66;;;3.66;;
71174;SDS011;58876;51.994;4.472;2023-10-19T01:48:38;2.31;;;2.31;;
71174;SDS011;58876;51.994;4.472;2023-10-19T01:51:08;1.98;;;1.98;;
71174;SDS011;58876;51.994;4.472;2023-10-19T01:53:39;2.10;;;2.10;;
71174;SDS011;58876;51.994;4.472;2023-10-19T01:56:12;2.41;;;2.41;;
71174;SDS011;58876;51.994;4.472;2023-10-19T01:58:40;1.76;;;1.76;;
71174;SDS011;58876;51.994;4.472;2023-10-19T02:01:07;2.06;;;2.06;;
71174;SDS011;58876;51.994;4.472;2023-10-19T02:03:37;2.08;;;2.08;;
71174;SDS011;58876;51.994;4.472;2023-10-19T02:06:07;1.84;;;1.84;;
71174;SDS011;58876;51.994;4.472;2023-10-19T02:08:49;1.85;;;1.85;;
71174;SDS011;58876;51.994;4.472;2023-10-19T02:11:21;1.64;;;1.64;;
71174;SDS011;58876;51.994;4.472;2023-10-19T02:13:48;1.71;;;1.71;;
71174;SDS011;58876;51.994;4.472;2023-10-19T02:16:16;1.77;;;1.77;;
71174;SDS011;58876;51.994;4.472;2023-10-19T02:18:45;1.69;;;1.69;;
71174;SDS011;58876;51.994;4.472;2023-10-19T02:21:10;1.64;;;1.64;;
71174;SDS011;58876;51.994;4.472;2023-10-19T02:23:39;1.49;;;1.49;;
71174;SDS011;58876;51.994;4.472;2023-10-19T02:26:07;1.47;;;1.47;;
71174;SDS011;58876;51.994;4.472;2023-10-19T02:28:33;1.32;;;1.32;;
71174;SDS011;58876;51.994;4.472;2023-10-19T02:31:05;1.27;;;1.27;;
71174;SDS011;58876;51.994;4.472;2023-10-19T02:33:44;1.20;;;1.20;;
71174;SDS011;58876;51.994;4.472;2023-10-19T02:36:11;1.34;;;1.34;;
71174;SDS011;58876;51.994;4.472;2023-10-19T02:38:39;1.21;;;1.21;;
71174;SDS011;58876;51.994;4.472;2023-10-19T02:41:06;1.36;;;1.36;;
71174;SDS011;58876;51.994;4.472;2023-10-19T02:43:31;1.08;;;1.08;;
71174;SDS011;58876;51.994;4.472;2023-10-19T02:45:58;1.20;;;1.20;;
71174;SDS011;58876;51.994;4.472;2023-10-19T02:48:24;1.26;;;1.26;;
71174;SDS011;58876;51.994;4.472;2023-10-19T02:50:50;1.25;;;1.25;;
71174;SDS011;58876;51.994;4.472;2023-10-19T02:53:15;1.51;;;1.51;;
71174;SDS011;58876;51.994;4.472;2023-10-19T02:55:44;1.32;;;1.32;;
71174;SDS011;58876;51.994;4.472;2023-10-19T02:58:09;1.37;;;1.37;;
71174;SDS011;58876;51.994;4.472;2023-10-19T03:00:36;1.72;;;1.72;;
71174;SDS011;58876;51.994;4.472;2023-10-19T03:03:03;1.50;;;1.50;;
71174;SDS011;58876;51.994;4.472;2023-10-19T03:05:30;1.36;;;1.36;;
71174;SDS011;58876;51.994;4.472;2023-10-19T03:07:56;1.29;;;1.29;;
71174;SDS011;58876;51.994;4.472;2023-10-19T03:10:22;1.73;;;1.73;;
71174;SDS011;58876;51.994;4.472;2023-10-19T03:13:07;1.70;;;1.70;;
71174;SDS011;58876;51.994;4.472;2023-10-19T03:15:33;1.69;;;1.69;;
71174;SDS011;58876;51.994;4.472;2023-10-19T03:17:59;1.37;;;1.37;;
71174;SDS011;58876;51.994;4.472;2023-10-19T03:20:27;1.48;;;1.48;;
71174;SDS011;58876;51.994;4.472;2023-10-19T03:22:53;1.30;;;1.30;;
71174;SDS011;58876;51.994;4.472;2023-10-19T03:25:23;1.40;;;1.40;;
71174;SDS011;58876;51.994;4.472;2023-10-19T03:28:07;1.45;;;1.45;;
71174;SDS011;58876;51.994;4.472;2023-10-19T03:30:36;1.39;;;1.39;;
71174;SDS011;58876;51.994;4.472;2023-10-19T03:33:05;1.50;;;1.50;;
71174;SDS011;58876;51.994;4.472;2023-10-19T03:35:34;1.43;;;1.43;;
71174;SDS011;58876;51.994;4.472;2023-10-19T03:38:06;1.53;;;1.53;;
71174;SDS011;58876;51.994;4.472;2023-10-19T03:40:43;2.07;;;2.07;;
71174;SDS011;58876;51.994;4.472;2023-10-19T03:43:17;1.56;;;1.56;;
71174;SDS011;58876;51.994;4.472;2023-10-19T03:45:46;1.52;;;1.52;;
71174;SDS011;58876;51.994;4.472;2023-10-19T03:48:18;1.60;;;1.60;;
71174;SDS011;58876;51.994;4.472;2023-10-19T03:50:49;1.62;;;1.62;;
71174;SDS011;58876;51.994;4.472;2023-10-19T03:53:17;1.77;;;1.77;;
71174;SDS011;58876;51.994;4.472;2023-10-19T03:55:43;2.00;;;2.00;;
71174;SDS011;58876;51.994;4.472;2023-10-19T03:58:09;1.92;;;1.92;;
71174;SDS011;58876;51.994;4.472;2023-10-19T04:00:37;1.83;;;1.83;;
71174;SDS011;58876;51.994;4.472;2023-10-19T04:03:02;1.94;;;1.94;;
71174;SDS011;58876;51.994;4.472;2023-10-19T04:05:28;1.85;;;1.85;;
71174;SDS011;58876;51.994;4.472;2023-10-19T04:07:53;2.04;;;2.04;;
71174;SDS011;58876;51.994;4.472;2023-10-19T04:10:23;1.86;;;1.86;;
71174;SDS011;58876;51.994;4.472;2023-10-19T04:12:54;1.98;;;1.98;;
71174;SDS011;58876;51.994;4.472;2023-10-19T04:15:20;1.87;;;1.87;;
71174;SDS011;58876;51.994;4.472;2023-10-19T04:17:47;1.92;;;1.92;;
71174;SDS011;58876;51.994;4.472;2023-10-19T04:20:14;2.20;;;2.20;;
71174;SDS011;58876;51.994;4.472;2023-10-19T04:22:41;1.96;;;1.96;;
71174;SDS011;58876;51.994;4.472;2023-10-19T04:25:07;1.96;;;1.96;;
71174;SDS011;58876;51.994;4.472;2023-10-19T04:27:33;1.81;;;1.81;;
71174;SDS011;58876;51.994;4.472;2023-10-19T04:30:01;1.93;;;1.93;;
71174;SDS011;58876;51.994;4.472;2023-10-19T04:32:27;1.85;;;1.85;;
71174;SDS011;58876;51.994;4.472;2023-10-19T04:34:53;2.16;;;2.16;;
71174;SDS011;58876;51.994;4.472;2023-10-19T04:37:19;2.07;;;2.07;;
71174;SDS011;58876;51.994;4.472;2023-10-19T04:39:45;1.76;;;1.76;;
71174;SDS011;58876;51.994;4.472;2023-10-19T04:42:10;1.66;;;1.66;;
71174;SDS011;58876;51.994;4.472;2023-10-19T04:44:37;1.87;;;1.84;;
71174;SDS011;58876;51.994;4.472;2023-10-19T04:47:02;1.87;;;1.72;;
71174;SDS011;58876;51.994;4.472;2023-10-19T04:49:28;1.75;;;1.54;;
71174;SDS011;58876;51.994;4.472;2023-10-19T04:51:53;1.69;;;1.47;;
71174;SDS011;58876;51.994;4.472;2023-10-19T04:54:19;1.91;;;1.65;;
71174;SDS011;58876;51.994;4.472;2023-10-19T04:56:44;2.32;;;2.03;;
71174;SDS011;58876;51.994;4.472;2023-10-19T04:59:10;2.06;;;1.83;;
71174;SDS011;58876;51.994;4.472;2023-10-19T05:01:35;1.77;;;1.64;;
71174;SDS011;58876;51.994;4.472;2023-10-19T05:04:02;1.94;;;1.92;;
71174;SDS011;58876;51.994;4.472;2023-10-19T05:06:28;2.09;;;2.09;;
71174;SDS011;58876;51.994;4.472;2023-10-19T05:08:53;1.79;;;1.79;;
71174;SDS011;58876;51.994;4.472;2023-10-19T05:11:19;1.76;;;1.76;;
71174;SDS011;58876;51.994;4.472;2023-10-19T05:13:44;2.32;;;2.32;;
71174;SDS011;58876;51.994;4.472;2023-10-19T05:16:10;1.98;;;1.98;;
71174;SDS011;58876;51.994;4.472;2023-10-19T05:18:35;2.71;;;2.71;;
71174;SDS011;58876;51.994;4.472;2023-10-19T05:21:01;2.90;;;2.90;;
71174;SDS011;58876;51.994;4.472;2023-10-19T05:23:27;3.47;;;3.47;;
71174;SDS011;58876;51.994;4.472;2023-10-19T05:25:54;3.51;;;3.51;;
71174;SDS011;58876;51.994;4.472;2023-10-19T05:28:27;3.30;;;3.30;;
71174;SDS011;58876;51.994;4.472;2023-10-19T05:30:53;4.38;;;4.38;;
71174;SDS011;58876;51.994;4.472;2023-10-19T05:33:19;3.21;;;3.21;;
71174;SDS011;58876;51.994;4.472;2023-10-19T05:35:49;3.25;;;3.25;;
71174;SDS011;58876;51.994;4.472;2023-10-19T05:38:16;3.07;;;3.07;;
71174;SDS011;58876;51.994;4.472;2023-10-19T05:40:44;6.70;;;6.70;;
71174;SDS011;58876;51.994;4.472;2023-10-19T05:43:10;3.68;;;3.68;;
71174;SDS011;58876;51.994;4.472;2023-10-19T05:45:36;4.01;;;4.01;;
71174;SDS011;58876;51.994;4.472;2023-10-19T05:48:03;3.87;;;3.87;;
71174;SDS011;58876;51.994;4.472;2023-10-19T05:50:29;4.82;;;4.82;;
71174;SDS011;58876;51.994;4.472;2023-10-19T05:52:55;6.71;;;6.71;;
71174;SDS011;58876;51.994;4.472;2023-10-19T05:55:20;5.10;;;5.10;;
71174;SDS011;58876;51.994;4.472;2023-10-19T05:57:47;6.20;;;6.20;;
71174;SDS011;58876;51.994;4.472;2023-10-19T06:00:12;6.43;;;6.43;;
71174;SDS011;58876;51.994;4.472;2023-10-19T06:02:45;10.01;;;10.01;;
71174;SDS011;58876;51.994;4.472;2023-10-19T06:05:15;11.33;;;11.33;;
71174;SDS011;58876;51.994;4.472;2023-10-19T06:07:42;5.89;;;5.89;;
71174;SDS011;58876;51.994;4.472;2023-10-19T06:10:10;9.81;;;9.81;;
71174;SDS011;58876;51.994;4.472;2023-10-19T06:12:41;7.68;;;7.68;;
71174;SDS011;58876;51.994;4.472;2023-10-19T06:15:09;11.78;;;11.78;;
71174;SDS011;58876;51.994;4.472;2023-10-19T06:17:36;14.46;;;14.46;;
71174;SDS011;58876;51.994;4.472;2023-10-19T06:20:04;15.15;;;15.15;;
71174;SDS011;58876;51.994;4.472;2023-10-19T06:22:32;15.23;;;15.23;;
71174;SDS011;58876;51.994;4.472;2023-10-19T06:24:58;18.20;;;18.20;;
71174;SDS011;58876;51.994;4.472;2023-10-19T06:27:24;23.45;;;23.45;;
71174;SDS011;58876;51.994;4.472;2023-10-19T06:29:49;28.64;;;28.64;;
71174;SDS011;58876;51.994;4.472;2023-10-19T06:32:15;28.40;;;28.40;;
71174;SDS011;58876;51.994;4.472;2023-10-19T06:34:40;28.79;;;28.79;;
71174;SDS011;58876;51.994;4.472;2023-10-19T06:37:06;22.54;;;22.54;;
71174;SDS011;58876;51.994;4.472;2023-10-19T06:39:33;24.15;;;24.15;;
71174;SDS011;58876;51.994;4.472;2023-10-19T06:41:59;22.01;;;22.01;;
71174;SDS011;58876;51.994;4.472;2023-10-19T06:44:24;19.83;;;19.83;;
71174;SDS011;58876;51.994;4.472;2023-10-19T06:46:50;25.87;;;25.87;;
71174;SDS011;58876;51.994;4.472;2023-10-19T06:49:15;30.38;;;30.38;;
71174;SDS011;58876;51.994;4.472;2023-10-19T06:51:42;33.35;;;33.35;;
71174;SDS011;58876;51.994;4.472;2023-10-19T06:54:08;31.77;;;31.77;;
71174;SDS011;58876;51.994;4.472;2023-10-19T06:56:33;23.62;;;23.62;;
71174;SDS011;58876;51.994;4.472;2023-10-19T06:59:02;12.20;;;12.20;;
71174;SDS011;58876;51.994;4.472;2023-10-19T07:01:30;10.00;;;10.00;;
71174;SDS011;58876;51.994;4.472;2023-10-19T07:03:57;10.08;;;10.08;;
71174;SDS011;58876;51.994;4.472;2023-10-19T07:06:23;8.82;;;8.82;;
71174;SDS011;58876;51.994;4.472;2023-10-19T07:08:49;7.78;;;7.78;;
71174;SDS011;58876;51.994;4.472;2023-10-19T07:11:15;6.79;;;6.79;;
71174;SDS011;58876;51.994;4.472;2023-10-19T07:13:40;6.42;;;6.42;;
71174;SDS011;58876;51.994;4.472;2023-10-19T07:16:06;6.32;;;6.32;;
71174;SDS011;58876;51.994;4.472;2023-10-19T07:18:34;5.08;;;5.08;;
71174;SDS011;58876;51.994;4.472;2023-10-19T07:20:59;6.16;;;6.16;;
71174;SDS011;58876;51.994;4.472;2023-10-19T07:23:28;16.65;;;16.65;;
71174;SDS011;58876;51.994;4.472;2023-10-19T07:25:54;4.64;;;4.64;;
71174;SDS011;58876;51.994;4.472;2023-10-19T07:28:21;4.62;;;4.62;;
71174;SDS011;58876;51.994;4.472;2023-10-19T07:30:47;5.72;;;5.72;;
71174;SDS011;58876;51.994;4.472;2023-10-19T07:33:14;11.84;;;11.84;;
71174;SDS011;58876;51.994;4.472;2023-10-19T07:35:43;4.84;;;4.84;;
71174;SDS011;58876;51.994;4.472;2023-10-19T07:38:15;8.04;;;8.04;;
71174;SDS011;58876;51.994;4.472;2023-10-19T07:40:42;4.47;;;4.47;;
71174;SDS011;58876;51.994;4.472;2023-10-19T07:43:11;2.28;;;2.28;;
71174;SDS011;58876;51.994;4.472;2023-10-19T07:45:36;2.06;;;2.06;;
71174;SDS011;58876;51.994;4.472;2023-10-19T07:48:02;1.83;;;1.83;;
71174;SDS011;58876;51.994;4.472;2023-10-19T07:50:32;2.39;;;2.23;;
71174;SDS011;58876;51.994;4.472;2023-10-19T07:53:01;2.36;;;2.04;;
71174;SDS011;58876;51.994;4.472;2023-10-19T07:55:27;2.60;;;2.19;;
71174;SDS011;58876;51.994;4.472;2023-10-19T07:57:54;2.54;;;2.11;;
71174;SDS011;58876;51.994;4.472;2023-10-19T08:00:20;2.85;;;2.37;;
71174;SDS011;58876;51.994;4.472;2023-10-19T08:02:46;2.85;;;2.42;;
71174;SDS011;58876;51.994;4.472;2023-10-19T08:05:15;2.96;;;2.51;;
71174;SDS011;58876;51.994;4.472;2023-10-19T08:07:45;2.99;;;2.58;;
71174;SDS011;58876;51.994;4.472;2023-10-19T08:10:17;2.94;;;2.55;;
71174;SDS011;58876;51.994;4.472;2023-10-19T08:12:44;17.76;;;17.45;;
71174;SDS011;58876;51.994;4.472;2023-10-19T08:15:15;32.11;;;32.11;;
71174;SDS011;58876;51.994;4.472;2023-10-19T08:17:41;74.15;;;74.15;;
71174;SDS011;58876;51.994;4.472;2023-10-19T08:20:09;19.83;;;19.83;;
71174;SDS011;58876;51.994;4.472;2023-10-19T08:22:43;2.52;;;2.52;;
71174;SDS011;58876;51.994;4.472;2023-10-19T08:25:11;2.49;;;2.49;;
71174;SDS011;58876;51.994;4.472;2023-10-19T08:27:43;2.63;;;2.62;;
71174;SDS011;58876;51.994;4.472;2023-10-19T08:30:13;2.75;;;2.64;;
71174;SDS011;58876;51.994;4.472;2023-10-19T08:32:39;2.96;;;2.74;;
71174;SDS011;58876;51.994;4.472;2023-10-19T08:35:07;3.16;;;2.87;;
71174;SDS011;58876;51.994;4.472;2023-10-19T08:37:37;3.07;;;2.83;;
71174;SDS011;58876;51.994;4.472;2023-10-19T08:40:05;3.07;;;2.79;;
71174;SDS011;58876;51.994;4.472;2023-10-19T08:42:32;2.86;;;2.58;;
71174;SDS011;58876;51.994;4.472;2023-10-19T08:44:59;3.61;;;3.25;;
71174;SDS011;58876;51.994;4.472;2023-10-19T08:47:25;3.34;;;2.95;;
71174;SDS011;58876;51.994;4.472;2023-10-19T08:49:52;4.94;;;4.81;;
71174;SDS011;58876;51.994;4.472;2023-10-19T08:52:19;4.95;;;4.95;;
71174;SDS011;58876;51.994;4.472;2023-10-19T08:54:47;10.02;;;10.02;;
71174;SDS011;58876;51.994;4.472;2023-10-19T08:57:13;5.10;;;5.10;;
71174;SDS011;58876;51.994;4.472;2023-10-19T08:59:39;18.88;;;18.88;;
71174;SDS011;58876;51.994;4.472;2023-10-19T09:02:05;57.85;;;57.85;;
71174;SDS011;58876;51.994;4.472;2023-10-19T09:04:32;87.37;;;87.37;;
71174;SDS011;58876;51.994;4.472;2023-10-19T09:07:06;102.42;;;102.42;;
71174;SDS011;58876;51.994;4.472;2023-10-19T09:09:35;62.34;;;62.34;;
71174;SDS011;58876;51.994;4.472;2023-10-19T09:12:05;65.64;;;65.64;;
71174;SDS011;58876;51.994;4.472;2023-10-19T09:14:33;106.71;;;106.71;;
71174;SDS011;58876;51.994;4.472;2023-10-19T09:17:02;152.97;;;152.97;;
71174;SDS011;58876;51.994;4.472;2023-10-19T09:19:40;171.10;;;171.10;;
71174;SDS011;58876;51.994;4.472;2023-10-19T09:22:08;169.66;;;169.66;;
71174;SDS011;58876;51.994;4.472;2023-10-19T09:24:49;200.39;;;200.39;;
71174;SDS011;58876;51.994;4.472;2023-10-19T09:27:18;254.19;;;254.19;;
71174;SDS011;58876;51.994;4.472;2023-10-19T09:29:44;184.61;;;184.61;;
71174;SDS011;58876;51.994;4.472;2023-10-19T09:32:10;221.98;;;221.98;;
71174;SDS011;58876;51.994;4.472;2023-10-19T09:34:38;210.36;;;210.36;;
71174;SDS011;58876;51.994;4.472;2023-10-19T09:37:08;143.53;;;143.53;;
71174;SDS011;58876;51.994;4.472;2023-10-19T09:39:35;44.32;;;44.32;;
71174;SDS011;58876;51.994;4.472;2023-10-19T09:42:02;67.05;;;67.05;;
71174;SDS011;58876;51.994;4.472;2023-10-19T09:44:38;110.89;;;110.89;;
71174;SDS011;58876;51.994;4.472;2023-10-19T09:47:10;89.75;;;89.75;;
71174;SDS011;58876;51.994;4.472;2023-10-19T09:49:41;61.90;;;61.90;;
71174;SDS011;58876;51.994;4.472;2023-10-19T09:52:08;33.37;;;33.37;;
71174;SDS011;58876;51.994;4.472;2023-10-19T09:57:16;42.22;;;42.22;;
71174;SDS011;58876;51.994;4.472;2023-10-19T09:59:55;60.77;;;60.77;;
71174;SDS011;58876;51.994;4.472;2023-10-19T10:02:33;69.63;;;69.63;;
71174;SDS011;58876;51.994;4.472;2023-10-19T10:05:00;61.35;;;61.35;;
71174;SDS011;58876;51.994;4.472;2023-10-19T10:07:26;100.41;;;100.41;;
71174;SDS011;58876;51.994;4.472;2023-10-19T10:09:52;79.73;;;79.73;;
71174;SDS011;58876;51.994;4.472;2023-10-19T10:12:20;54.69;;;54.69;;
71174;SDS011;58876;51.994;4.472;2023-10-19T10:17:24;14.03;;;14.03;;
71174;SDS011;58876;51.994;4.472;2023-10-19T10:19:54;13.76;;;13.76;;
71174;SDS011;58876;51.994;4.472;2023-10-19T10:22:44;5.59;;;5.59;;
71174;SDS011;58876;51.994;4.472;2023-10-19T10:25:28;4.31;;;4.31;;
71174;SDS011;58876;51.994;4.472;2023-10-19T10:27:54;7.61;;;7.61;;
71174;SDS011;58876;51.994;4.472;2023-10-19T10:30:20;3.21;;;3.21;;
71174;SDS011;58876;51.994;4.472;2023-10-19T10:32:50;3.44;;;3.44;;
71174;SDS011;58876;51.994;4.472;2023-10-19T10:38:05;3.87;;;3.39;;
71174;SDS011;58876;51.994;4.472;2023-10-19T10:40:41;4.33;;;3.68;;
71174;SDS011;58876;51.994;4.472;2023-10-19T10:43:11;69.97;;;69.81;;
71174;SDS011;58876;51.994;4.472;2023-10-19T10:45:37;2.95;;;2.95;;
71174;SDS011;58876;51.994;4.472;2023-10-19T10:48:02;7.19;;;7.19;;
71174;SDS011;58876;51.994;4.472;2023-10-19T10:50:29;81.61;;;81.61;;
71174;SDS011;58876;51.994;4.472;2023-10-19T10:52:55;22.14;;;22.14;;
71174;SDS011;58876;51.994;4.472;2023-10-19T10:55:23;9.70;;;9.70;;
71174;SDS011;58876;51.994;4.472;2023-10-19T10:57:51;5.71;;;5.71;;
71174;SDS011;58876;51.994;4.472;2023-10-19T11:00:16;6.14;;;6.14;;
71174;SDS011;58876;51.994;4.472;2023-10-19T11:02:44;6.49;;;6.49;;
71174;SDS011;58876;51.994;4.472;2023-10-19T11:05:11;24.34;;;24.34;;
71174;SDS011;58876;51.994;4.472;2023-10-19T11:07:39;47.56;;;47.56;;
71174;SDS011;58876;51.994;4.472;2023-10-19T11:10:05;40.25;;;40.25;;
71174;SDS011;58876;51.994;4.472;2023-10-19T11:12:32;40.02;;;40.02;;
71174;SDS011;58876;51.994;4.472;2023-10-19T11:15:00;40.06;;;40.06;;
71174;SDS011;58876;51.994;4.472;2023-10-19T11:17:41;77.37;;;77.37;;
71174;SDS011;58876;51.994;4.472;2023-10-19T11:20:08;26.17;;;26.17;;
71174;SDS011;58876;51.994;4.472;2023-10-19T11:22:47;18.78;;;18.78;;
71174;SDS011;58876;51.994;4.472;2023-10-19T11:25:25;19.31;;;19.31;;
71174;SDS011;58876;51.994;4.472;2023-10-19T11:27:58;18.65;;;18.65;;
71174;SDS011;58876;51.994;4.472;2023-10-19T11:30:26;22.33;;;22.33;;
71174;SDS011;58876;51.994;4.472;2023-10-19T11:32:53;24.38;;;24.38;;
71174;SDS011;58876;51.994;4.472;2023-10-19T11:35:22;23.61;;;23.61;;
71174;SDS011;58876;51.994;4.472;2023-10-19T11:37:53;20.06;;;20.06;;
71174;SDS011;58876;51.994;4.472;2023-10-19T11:40:20;19.15;;;19.15;;
71174;SDS011;58876;51.994;4.472;2023-10-19T11:42:47;15.39;;;15.39;;
71174;SDS011;58876;51.994;4.472;2023-10-19T11:45:14;19.29;;;19.29;;
71174;SDS011;58876;51.994;4.472;2023-10-19T11:47:42;16.59;;;16.59;;
71174;SDS011;58876;51.994;4.472;2023-10-19T11:50:11;13.14;;;13.14;;
71174;SDS011;58876;51.994;4.472;2023-10-19T11:52:39;10.00;;;10.00;;
71174;SDS011;58876;51.994;4.472;2023-10-19T11:55:05;8.03;;;8.03;;
71174;SDS011;58876;51.994;4.472;2023-10-19T11:57:31;6.98;;;6.98;;
71174;SDS011;58876;51.994;4.472;2023-10-19T11:59:57;7.37;;;7.37;;
71174;SDS011;58876;51.994;4.472;2023-10-19T12:02:24;8.64;;;8.64;;
71174;SDS011;58876;51.994;4.472;2023-10-19T12:04:52;9.58;;;9.58;;
71174;SDS011;58876;51.994;4.472;2023-10-19T12:07:17;8.20;;;8.20;;
71174;SDS011;58876;51.994;4.472;2023-10-19T12:09:43;7.88;;;7.88;;
71174;SDS011;58876;51.994;4.472;2023-10-19T12:12:10;7.02;;;7.02;;
71174;SDS011;58876;51.994;4.472;2023-10-19T12:14:36;6.80;;;6.80;;
71174;SDS011;58876;51.994;4.472;2023-10-19T12:17:02;5.97;;;5.97;;
71174;SDS011;58876;51.994;4.472;2023-10-19T12:19:30;4.83;;;4.83;;
71174;SDS011;58876;51.994;4.472;2023-10-19T12:21:56;4.50;;;4.50;;
71174;SDS011;58876;51.994;4.472;2023-10-19T12:24:22;3.26;;;3.26;;
71174;SDS011;58876;51.994;4.472;2023-10-19T12:26:48;3.26;;;3.17;;
71174;SDS011;58876;51.994;4.472;2023-10-19T12:29:13;4.53;;;3.80;;
71174;SDS011;58876;51.994;4.472;2023-10-19T12:31:42;3.72;;;3.12;;
71174;SDS011;58876;51.994;4.472;2023-10-19T12:34:08;3.99;;;3.25;;
71174;SDS011;58876;51.994;4.472;2023-10-19T12:36:34;4.64;;;3.68;;
71174;SDS011;58876;51.994;4.472;2023-10-19T12:39:00;4.52;;;3.51;;
71174;SDS011;58876;51.994;4.472;2023-10-19T12:41:26;4.49;;;3.54;;
71174;SDS011;58876;51.994;4.472;2023-10-19T12:43:52;4.69;;;3.66;;
71174;SDS011;58876;51.994;4.472;2023-10-19T12:46:22;3.87;;;2.99;;
71174;SDS011;58876;51.994;4.472;2023-10-19T12:48:52;4.63;;;3.55;;
71174;SDS011;58876;51.994;4.472;2023-10-19T12:51:20;4.91;;;3.71;;
71174;SDS011;58876;51.994;4.472;2023-10-19T12:53:52;8.67;;;6.58;;
71174;SDS011;58876;51.994;4.472;2023-10-19T12:56:22;4.26;;;3.57;;
71174;SDS011;58876;51.994;4.472;2023-10-19T12:58:53;4.01;;;3.35;;
71174;SDS011;58876;51.994;4.472;2023-10-19T13:01:19;4.55;;;3.72;;
71174;SDS011;58876;51.994;4.472;2023-10-19T13:03:46;4.44;;;3.70;;
71174;SDS011;58876;51.994;4.472;2023-10-19T13:06:14;4.37;;;3.66;;
71174;SDS011;58876;51.994;4.472;2023-10-19T13:08:40;4.24;;;3.44;;
71174;SDS011;58876;51.994;4.472;2023-10-19T13:11:07;4.42;;;3.72;;
71174;SDS011;58876;51.994;4.472;2023-10-19T13:13:33;4.40;;;3.63;;
71174;SDS011;58876;51.994;4.472;2023-10-19T13:16:01;5.01;;;4.01;;
71174;SDS011;58876;51.994;4.472;2023-10-19T13:18:30;4.69;;;3.77;;
71174;SDS011;58876;51.994;4.472;2023-10-19T13:20:59;4.59;;;3.72;;
71174;SDS011;58876;51.994;4.472;2023-10-19T13:23:30;4.67;;;3.85;;
71174;SDS011;58876;51.994;4.472;2023-10-19T13:25:59;4.73;;;3.92;;
71174;SDS011;58876;51.994;4.472;2023-10-19T13:28:40;4.47;;;3.65;;
71174;SDS011;58876;51.994;4.472;2023-10-19T13:31:05;12.03;;;11.90;;
71174;SDS011;58876;51.994;4.472;2023-10-19T13:33:34;28.53;;;28.53;;
71174;SDS011;58876;51.994;4.472;2023-10-19T13:36:00;25.87;;;25.87;;
71174;SDS011;58876;51.994;4.472;2023-10-19T13:38:25;23.69;;;23.69;;
71174;SDS011;58876;51.994;4.472;2023-10-19T13:40:50;23.03;;;23.03;;
71174;SDS011;58876;51.994;4.472;2023-10-19T13:43:16;9.83;;;9.83;;
71174;SDS011;58876;51.994;4.472;2023-10-19T13:45:43;14.69;;;14.69;;
71174;SDS011;58876;51.994;4.472;2023-10-19T13:48:11;19.48;;;19.48;;
71174;SDS011;58876;51.994;4.472;2023-10-19T13:50:45;40.56;;;40.56;;
71174;SDS011;58876;51.994;4.472;2023-10-19T13:53:13;75.74;;;75.74;;
71174;SDS011;58876;51.994;4.472;2023-10-19T13:55:40;48.91;;;48.91;;
71174;SDS011;58876;51.994;4.472;2023-10-19T13:58:06;41.66;;;41.66;;
71174;SDS011;58876;51.994;4.472;2023-10-19T14:00:32;50.69;;;50.69;;
71174;SDS011;58876;51.994;4.472;2023-10-19T14:03:16;123.94;;;123.94;;
71174;SDS011;58876;51.994;4.472;2023-10-19T14:05:42;190.75;;;190.75;;
71174;SDS011;58876;51.994;4.472;2023-10-19T14:08:13;258.79;;;258.79;;
71174;SDS011;58876;51.994;4.472;2023-10-19T14:10:41;327.66;;;327.66;;
71174;SDS011;58876;51.994;4.472;2023-10-19T14:13:07;300.24;;;300.24;;
71174;SDS011;58876;51.994;4.472;2023-10-19T14:15:33;256.96;;;256.96;;
71174;SDS011;58876;51.994;4.472;2023-10-19T14:17:59;388.19;;;388.19;;
71174;SDS011;58876;51.994;4.472;2023-10-19T14:20:27;192.79;;;192.79;;
71174;SDS011;58876;51.994;4.472;2023-10-19T14:22:54;127.15;;;127.15;;
71174;SDS011;58876;51.994;4.472;2023-10-19T14:25:20;46.64;;;46.64;;
71174;SDS011;58876;51.994;4.472;2023-10-19T14:27:48;11.31;;;11.31;;
71174;SDS011;58876;51.994;4.472;2023-10-19T14:30:17;12.96;;;12.96;;
71174;SDS011;58876;51.994;4.472;2023-10-19T14:32:46;13.79;;;13.79;;
71174;SDS011;58876;51.994;4.472;2023-10-19T14:35:14;30.14;;;30.14;;
71174;SDS011;58876;51.994;4.472;2023-10-19T14:37:42;15.33;;;15.33;;
71174;SDS011;58876;51.994;4.472;2023-10-19T14:40:14;14.80;;;14.80;;
71174;SDS011;58876;51.994;4.472;2023-10-19T14:42:42;16.84;;;16.84;;
71174;SDS011;58876;51.994;4.472;2023-10-19T14:45:08;43.60;;;43.60;;
71174;SDS011;58876;51.994;4.472;2023-10-19T14:47:38;48.34;;;48.34;;
71174;SDS011;58876;51.994;4.472;2023-10-19T14:50:14;25.12;;;25.12;;